createdAt,value
2023-09-06T00:00:47.519Z,13.40
2023-09-06T00:05:43.684Z,11.60
2023-09-06T00:08:13.604Z,11.82
2023-09-06T00:10:41.828Z,12.85
2023-09-06T00:15:37.667Z,11.98
2023-09-06T00:20:38.307Z,12.07
2023-09-06T00:23:07.259Z,12.15
2023-09-06T00:25:35.051Z,12.10
2023-09-06T00:28:05.717Z,12.18
2023-09-06T00:30:33.187Z,11.65
2023-09-06T00:33:01.647Z,12.13
2023-09-06T00:35:30.519Z,12.68
2023-09-06T00:40:25.186Z,12.40
2023-09-06T00:42:54.468Z,12.57
2023-09-06T00:45:27.761Z,13.38
2023-09-06T00:47:57.478Z,13.85
2023-09-06T00:50:25.445Z,13.48
2023-09-06T00:52:54.895Z,14.98
2023-09-06T00:55:22.559Z,14.80
2023-09-06T00:57:50.606Z,15.20
2023-09-06T01:00:20.856Z,16.48
2023-09-06T01:02:49.345Z,16.63
2023-09-06T01:05:17.828Z,17.70
2023-09-06T01:07:48.557Z,16.50
2023-09-06T01:10:15.912Z,18.05
2023-09-06T01:12:43.358Z,17.30
2023-09-06T01:15:12.641Z,18.38
2023-09-06T01:17:43.397Z,18.80
2023-09-06T01:20:17.494Z,18.88
2023-09-06T01:22:53.495Z,17.58
2023-09-06T01:25:21.283Z,17.42
2023-09-06T01:30:16.457Z,16.85
2023-09-06T01:32:43.675Z,15.50
2023-09-06T01:35:12.164Z,15.45
2023-09-06T01:37:39.509Z,14.25
2023-09-06T01:40:18.070Z,14.75
2023-09-06T01:42:46.521Z,14.35
2023-09-06T01:45:19.009Z,14.80
2023-09-06T01:50:21.580Z,13.40
2023-09-06T01:52:49.279Z,13.30
2023-09-06T01:55:17.062Z,14.18
2023-09-06T01:57:44.369Z,13.32
2023-09-06T02:00:22.520Z,13.57
2023-09-06T02:02:49.789Z,13.73
2023-09-06T02:05:17.421Z,13.32
2023-09-06T02:07:46.524Z,12.98
2023-09-06T02:10:14.068Z,12.10
2023-09-06T02:12:41.491Z,12.23
2023-09-06T02:15:10.000Z,12.10
2023-09-06T02:17:37.267Z,12.95
2023-09-06T02:22:48.739Z,13.00
2023-09-06T02:25:17.822Z,12.68
2023-09-06T02:27:45.293Z,13.35
2023-09-06T02:32:40.024Z,15.02
2023-09-06T02:35:08.764Z,12.10
2023-09-06T02:37:38.006Z,14.68
2023-09-06T02:42:42.929Z,12.65
2023-09-06T02:45:11.284Z,13.60
2023-09-06T02:47:50.285Z,14.10
2023-09-06T02:50:19.947Z,13.02
2023-09-06T02:52:47.688Z,13.40
2023-09-06T02:55:15.480Z,12.32
2023-09-06T02:57:43.479Z,13.30
2023-09-06T03:00:24.129Z,13.48
2023-09-06T03:02:53.864Z,12.52
2023-09-06T03:07:50.090Z,11.77
2023-09-06T03:10:21.500Z,12.65
2023-09-06T03:12:49.912Z,13.68
2023-09-06T03:15:17.243Z,14.13
2023-09-06T03:17:48.563Z,14.05
2023-09-06T03:20:26.734Z,14.02
2023-09-06T03:22:54.215Z,12.95
2023-09-06T03:25:22.009Z,14.02
2023-09-06T03:27:49.736Z,13.27
2023-09-06T03:30:17.092Z,13.52
2023-09-06T03:32:44.633Z,12.57
2023-09-06T03:35:12.443Z,11.40
2023-09-06T03:37:42.943Z,12.48
2023-09-06T03:40:21.572Z,11.93
2023-09-06T03:42:49.153Z,12.50
2023-09-06T03:45:23.029Z,11.63
2023-09-06T03:47:50.745Z,12.50
2023-09-06T03:50:18.201Z,12.07
2023-09-06T03:52:45.494Z,12.25
2023-09-06T03:55:13.244Z,11.65
2023-09-06T03:57:40.564Z,10.98
2023-09-06T04:00:19.882Z,12.13
2023-09-06T04:02:47.417Z,13.02
2023-09-06T04:05:14.782Z,12.18
2023-09-06T04:07:42.055Z,11.73
2023-09-06T04:10:18.046Z,12.45
2023-09-06T04:12:45.658Z,13.00
2023-09-06T04:15:16.133Z,11.02
2023-09-06T04:17:43.545Z,11.15
2023-09-06T04:20:21.117Z,11.98
2023-09-06T04:22:48.923Z,11.93
2023-09-06T04:25:17.149Z,12.02
2023-09-06T04:30:14.867Z,11.38
2023-09-06T04:32:42.484Z,10.90
2023-09-06T04:37:37.810Z,11.43
2023-09-06T04:40:06.587Z,11.23
2023-09-06T04:42:34.060Z,12.55
2023-09-06T04:45:01.288Z,11.40
2023-09-06T04:47:28.612Z,11.90
2023-09-06T04:57:18.350Z,12.75
2023-09-06T04:59:46.331Z,12.65
2023-09-06T05:02:13.646Z,13.23
2023-09-06T05:04:40.969Z,13.07
2023-09-06T05:07:08.144Z,12.60
2023-09-06T05:09:36.271Z,12.85
2023-09-06T05:12:06.242Z,12.20
2023-09-06T05:14:34.129Z,12.52
2023-09-06T05:19:29.434Z,13.00
2023-09-06T05:21:56.918Z,12.95
2023-09-06T05:24:24.195Z,12.63
2023-09-06T05:26:51.553Z,12.68
2023-09-06T05:34:13.023Z,12.45
2023-09-06T05:36:40.462Z,12.20
2023-09-06T05:39:07.841Z,11.65
2023-09-06T05:41:35.534Z,13.07
2023-09-06T05:44:02.889Z,13.23
2023-09-06T05:46:33.694Z,12.35
2023-09-06T05:49:01.615Z,13.07
2023-09-06T05:51:28.977Z,12.88
2023-09-06T05:53:56.328Z,13.63
2023-09-06T05:56:24.118Z,12.70
2023-09-06T05:58:51.394Z,13.23
2023-09-06T06:01:19.523Z,12.88
2023-09-06T06:03:46.979Z,13.25
2023-09-06T06:06:17.910Z,12.65
2023-09-06T06:08:45.352Z,12.30
2023-09-06T06:11:13.422Z,12.68
2023-09-06T06:13:40.954Z,12.05
2023-09-06T06:16:08.442Z,12.60
2023-09-06T06:18:35.716Z,13.13
2023-09-06T06:21:04.380Z,12.23
2023-09-06T06:23:31.969Z,11.85
2023-09-06T06:25:59.389Z,12.48
2023-09-06T06:28:26.693Z,12.50
2023-09-06T06:30:54.117Z,12.63
2023-09-06T06:33:21.645Z,12.35
2023-09-06T06:35:49.140Z,12.20
2023-09-06T06:38:16.643Z,12.50
2023-09-06T06:40:44.047Z,12.60
2023-09-06T06:43:11.491Z,11.75
2023-09-06T06:45:38.750Z,13.20
2023-09-06T06:48:06.808Z,11.95
2023-09-06T06:50:34.365Z,12.57
2023-09-06T06:53:02.148Z,13.27
2023-09-06T06:55:30.549Z,13.05
2023-09-06T06:57:57.989Z,13.73
2023-09-06T07:00:25.600Z,13.35
2023-09-06T07:02:52.978Z,12.57
2023-09-06T07:05:20.383Z,12.98
2023-09-06T07:07:47.977Z,13.48
2023-09-06T07:10:16.916Z,13.43
2023-09-06T07:12:44.281Z,13.90
2023-09-06T07:15:13.098Z,13.38
2023-09-06T07:17:40.576Z,13.70
2023-09-06T07:22:37.271Z,13.15
2023-09-06T07:25:06.473Z,14.07
2023-09-06T07:27:34.064Z,13.23
2023-09-06T07:30:01.415Z,13.23
2023-09-06T07:32:28.404Z,14.10
2023-09-06T07:34:56.059Z,14.32
2023-09-06T07:37:23.488Z,14.07
2023-09-06T07:39:51.034Z,15.25
2023-09-06T07:42:18.665Z,14.73
2023-09-06T07:44:46.380Z,15.10
2023-09-06T07:47:22.114Z,14.00
2023-09-06T07:49:49.885Z,13.90
2023-09-06T07:52:28.043Z,14.10
2023-09-06T07:54:55.766Z,13.23
2023-09-06T07:57:23.057Z,13.73
2023-09-06T08:00:06.927Z,13.85
2023-09-06T08:02:40.509Z,14.02
2023-09-06T08:05:13.293Z,13.88
2023-09-06T08:07:44.501Z,13.10
2023-09-06T08:10:17.149Z,13.65
2023-09-06T08:15:22.214Z,13.40
2023-09-06T08:17:51.016Z,13.60
2023-09-06T08:20:19.201Z,14.02
2023-09-06T08:22:46.844Z,15.13
2023-09-06T08:25:25.651Z,15.38
2023-09-06T08:27:53.475Z,15.57
2023-09-06T08:30:24.632Z,15.20
2023-09-06T08:33:13.472Z,13.85
2023-09-06T08:35:40.502Z,14.65
2023-09-06T08:38:10.684Z,19.40
2023-09-06T08:43:11.752Z,15.05
2023-09-06T08:45:43.448Z,14.73
2023-09-06T08:48:12.298Z,17.07
2023-09-06T08:50:40.659Z,15.10
2023-09-06T08:53:23.199Z,14.25
2023-09-06T08:55:59.477Z,12.98
2023-09-06T08:58:28.665Z,12.43
2023-09-06T09:00:57.343Z,13.95
2023-09-06T09:03:24.803Z,12.98
2023-09-06T09:05:52.387Z,12.07
2023-09-06T09:08:20.003Z,11.55
2023-09-06T09:11:10.190Z,12.52
2023-09-06T09:13:51.600Z,11.25
2023-09-06T09:16:19.148Z,10.57
2023-09-06T09:18:47.458Z,11.50
2023-09-06T09:21:15.551Z,11.07
2023-09-06T09:23:49.117Z,10.93
2023-09-06T09:26:21.407Z,10.57
2023-09-06T09:31:18.184Z,11.02
2023-09-06T09:33:51.672Z,10.65
2023-09-06T09:36:19.946Z,11.25
2023-09-06T09:41:20.148Z,10.50
2023-09-06T09:43:47.635Z,8.88
2023-09-06T09:46:28.176Z,11.60
2023-09-06T09:53:55.450Z,9.88
2023-09-06T09:56:28.036Z,9.43
2023-09-06T09:58:56.899Z,8.38
2023-09-06T10:01:24.267Z,9.02
2023-09-06T10:03:57.149Z,8.90
2023-09-06T10:06:28.338Z,10.43
2023-09-06T10:08:58.962Z,9.80
2023-09-06T10:11:31.309Z,8.43
2023-09-06T10:14:12.426Z,9.18
2023-09-06T10:16:42.483Z,7.95
2023-09-06T10:20:00.906Z,8.60
2023-09-06T10:22:23.541Z,7.80
2023-09-06T10:24:54.088Z,8.20
2023-09-06T10:27:21.720Z,9.75
2023-09-06T10:30:03.901Z,7.82
2023-09-06T10:32:43.340Z,8.52
2023-09-06T10:35:17.324Z,7.95
2023-09-06T10:37:50.787Z,8.48
2023-09-06T10:40:20.448Z,13.15
2023-09-06T10:42:47.804Z,17.92
2023-09-06T10:45:15.734Z,10.43
2023-09-06T10:47:44.122Z,8.57
2023-09-06T10:50:14.013Z,8.90
2023-09-06T10:52:42.886Z,8.90
2023-09-06T10:55:22.526Z,8.75
2023-09-06T10:57:53.880Z,9.38
2023-09-06T11:00:27.142Z,9.02
2023-09-06T11:03:01.221Z,7.80
2023-09-06T11:05:34.230Z,8.63
2023-09-06T11:08:02.130Z,8.63
2023-09-06T11:10:38.887Z,9.38
2023-09-06T11:13:11.849Z,8.77
2023-09-06T11:15:42.326Z,8.45
2023-09-06T11:18:10.974Z,7.90
2023-09-06T11:20:39.264Z,7.78
2023-09-06T11:23:06.937Z,8.40
2023-09-06T11:25:34.785Z,7.88
2023-09-06T11:28:16.133Z,6.88
2023-09-06T11:30:46.272Z,7.30
2023-09-06T11:33:14.294Z,6.45
2023-09-06T11:35:53.197Z,6.97
2023-09-06T11:38:26.789Z,7.32
2023-09-06T11:40:54.966Z,7.45
2023-09-06T11:43:25.797Z,7.38
2023-09-06T11:45:55.339Z,7.82
2023-09-06T11:48:29.377Z,6.35
2023-09-06T11:51:01.096Z,6.72
2023-09-06T11:53:29.037Z,6.97
2023-09-06T11:56:01.347Z,7.45
2023-09-06T11:58:31.426Z,7.35
2023-09-06T12:01:03.087Z,6.88
2023-09-06T12:03:35.606Z,6.93
2023-09-06T12:08:35.528Z,5.60
2023-09-06T12:11:07.891Z,6.85
2023-09-06T12:13:37.296Z,6.50
2023-09-06T12:16:07.428Z,6.10
2023-09-06T12:18:37.384Z,5.45
2023-09-06T12:21:06.565Z,5.18
2023-09-06T12:23:37.949Z,4.93
2023-09-06T12:28:35.623Z,6.93
2023-09-06T12:31:15.293Z,5.38
2023-09-06T12:33:47.157Z,4.63
2023-09-06T12:36:18.783Z,5.38
2023-09-06T12:38:46.803Z,5.63
2023-09-06T12:41:14.566Z,5.00
2023-09-06T12:43:42.061Z,5.85
2023-09-06T12:46:10.323Z,5.50
2023-09-06T12:48:38.160Z,5.35
2023-09-06T12:51:08.232Z,4.88
2023-09-06T12:53:36.228Z,5.60
2023-09-06T12:56:04.757Z,5.00
2023-09-06T12:58:32.862Z,4.75
2023-09-06T13:01:02.119Z,5.38
2023-09-06T13:03:29.922Z,5.40
2023-09-06T13:06:00.177Z,5.35
2023-09-06T13:08:27.878Z,5.43
2023-09-06T13:10:56.203Z,5.35
2023-09-06T13:13:24.730Z,5.07
2023-09-06T13:15:52.507Z,5.28
2023-09-06T13:18:21.750Z,4.72
2023-09-06T13:20:51.102Z,4.55
2023-09-06T13:23:18.689Z,5.13
2023-09-06T13:25:46.352Z,4.65
2023-09-06T13:28:13.991Z,5.00
2023-09-06T13:30:41.662Z,5.00
2023-09-06T13:33:09.392Z,4.35
2023-09-06T13:35:37.056Z,4.00
2023-09-06T13:38:05.050Z,4.05
2023-09-06T13:40:32.802Z,4.13
2023-09-06T13:43:08.618Z,3.95
2023-09-06T13:45:36.759Z,3.45
2023-09-06T13:48:05.300Z,3.95
2023-09-06T13:50:33.006Z,3.67
2023-09-06T13:53:00.711Z,4.53
2023-09-06T13:55:28.458Z,4.43
2023-09-06T13:57:56.597Z,3.95
2023-09-06T14:00:25.674Z,4.45
2023-09-06T14:02:53.689Z,3.88
2023-09-06T14:05:21.782Z,3.60
2023-09-06T14:07:50.556Z,3.67
2023-09-06T14:10:18.589Z,3.65
2023-09-06T14:12:47.393Z,3.15
2023-09-06T14:15:15.031Z,3.60
2023-09-06T14:17:42.741Z,2.85
2023-09-06T14:20:11.495Z,3.55
2023-09-06T14:22:39.087Z,3.20
2023-09-06T14:25:07.355Z,2.67
2023-09-06T14:27:35.061Z,2.72
2023-09-06T14:30:02.840Z,2.80
2023-09-06T14:32:30.282Z,3.50
2023-09-06T14:34:58.234Z,2.95
2023-09-06T14:37:26.670Z,2.13
2023-09-06T14:39:54.419Z,2.80
2023-09-06T14:42:22.212Z,2.72
2023-09-06T14:44:49.982Z,2.80
2023-09-06T14:47:18.174Z,2.95
2023-09-06T14:49:46.489Z,3.03
2023-09-06T14:52:14.720Z,3.05
2023-09-06T14:54:42.652Z,2.72
2023-09-06T14:57:11.645Z,2.90
2023-09-06T14:59:40.276Z,2.78
2023-09-06T15:02:08.909Z,3.03
2023-09-06T15:04:37.109Z,3.08
2023-09-06T15:07:05.479Z,3.47
2023-09-06T15:09:33.417Z,2.45
2023-09-06T15:12:03.228Z,2.20
2023-09-06T15:14:31.781Z,3.25
2023-09-06T15:16:59.952Z,2.75
2023-09-06T15:19:31.347Z,2.97
2023-09-06T15:21:59.064Z,2.20
2023-09-06T15:24:27.389Z,3.17
2023-09-06T15:26:57.067Z,2.80
2023-09-06T15:29:25.392Z,2.85
2023-09-06T15:31:55.634Z,3.38
2023-09-06T15:34:23.517Z,3.42
2023-09-06T15:36:51.568Z,4.15
2023-09-06T15:39:19.335Z,3.33
2023-09-06T15:41:47.466Z,3.13
2023-09-06T15:44:16.027Z,4.18
2023-09-06T15:46:44.865Z,2.60
2023-09-06T15:49:13.666Z,3.60
2023-09-06T15:51:42.065Z,3.25
2023-09-06T15:54:10.875Z,3.08
2023-09-06T15:56:39.330Z,3.83
2023-09-06T15:59:08.990Z,3.13
2023-09-06T16:01:41.030Z,3.35
2023-09-06T16:07:10.379Z,4.00
2023-09-06T16:09:43.967Z,3.42
2023-09-06T16:12:11.596Z,3.65
2023-09-06T16:14:38.927Z,4.10
2023-09-06T16:17:17.514Z,3.35
2023-09-06T16:19:50.501Z,3.92
2023-09-06T16:23:12.289Z,3.42
2023-09-06T16:25:36.301Z,3.22
2023-09-06T16:28:13.848Z,3.65
2023-09-06T16:31:03.168Z,3.80
2023-09-06T16:33:41.619Z,3.72
2023-09-06T16:36:09.090Z,2.97
2023-09-06T16:38:36.830Z,3.47
2023-09-06T16:41:04.466Z,3.28
2023-09-06T16:43:32.230Z,3.38
2023-09-06T16:46:07.541Z,3.92
2023-09-06T16:48:36.182Z,3.58
2023-09-06T16:51:08.679Z,4.38
2023-09-06T16:56:21.622Z,3.88
2023-09-06T16:58:49.720Z,3.58
2023-09-06T17:01:17.435Z,3.00
2023-09-06T17:03:44.532Z,3.38
2023-09-06T17:06:13.551Z,4.28
2023-09-06T17:08:41.590Z,3.97
2023-09-06T17:13:37.971Z,3.67
2023-09-06T17:16:07.459Z,3.60
2023-09-06T17:18:35.816Z,3.60
2023-09-06T17:21:15.698Z,3.60
2023-09-06T17:23:56.945Z,3.97
2023-09-06T17:26:33.021Z,3.70
2023-09-06T17:29:07.468Z,4.05
2023-09-06T17:31:35.919Z,2.95
2023-09-06T17:34:03.882Z,3.65
2023-09-06T17:39:15.361Z,3.25
2023-09-06T17:41:46.461Z,3.50
2023-09-06T17:44:15.623Z,3.38
2023-09-06T17:46:43.299Z,3.30
2023-09-06T17:49:10.949Z,3.63
2023-09-06T17:51:40.529Z,3.45
2023-09-06T17:54:08.136Z,3.47
2023-09-06T17:56:38.477Z,3.28
2023-09-06T17:59:08.877Z,3.00
2023-09-06T18:01:37.624Z,3.00
2023-09-06T18:06:34.338Z,3.13
2023-09-06T18:09:09.174Z,3.50
2023-09-06T18:11:37.630Z,3.78
2023-09-06T18:14:09.572Z,3.85
2023-09-06T18:16:43.887Z,3.60
2023-09-06T18:19:11.311Z,3.83
2023-09-06T18:21:39.164Z,3.60
2023-09-06T18:24:10.720Z,4.00
2023-09-06T18:26:38.359Z,4.97
2023-09-06T18:29:05.900Z,4.07
2023-09-06T18:31:33.486Z,4.43
2023-09-06T18:34:00.649Z,4.60
2023-09-06T18:36:28.292Z,4.63
2023-09-06T18:38:55.692Z,4.03
2023-09-06T18:41:23.006Z,3.72
2023-09-06T18:43:50.653Z,3.40
2023-09-06T18:46:18.155Z,2.97
2023-09-06T18:48:45.367Z,2.80
2023-09-06T18:51:12.805Z,3.72
2023-09-06T18:53:43.436Z,3.15
2023-09-06T18:56:12.881Z,3.35
2023-09-06T18:58:41.255Z,3.63
2023-09-06T19:01:14.950Z,3.20
2023-09-06T19:03:43.522Z,3.60
2023-09-06T19:06:12.268Z,3.38
2023-09-06T19:08:40.757Z,4.22
2023-09-06T19:11:11.233Z,4.10
2023-09-06T19:13:38.772Z,3.92
2023-09-06T19:16:06.436Z,3.75
2023-09-06T19:21:01.329Z,3.88
2023-09-06T19:23:29.030Z,4.55
2023-09-06T19:25:56.898Z,4.50
2023-09-06T19:28:25.245Z,6.00
2023-09-06T19:30:55.596Z,4.93
2023-09-06T19:33:23.365Z,6.72
2023-09-06T19:35:51.292Z,6.60
2023-09-06T19:38:26.090Z,6.63
2023-09-06T19:43:22.460Z,6.85
2023-09-06T19:45:57.874Z,7.03
2023-09-06T19:48:26.667Z,7.78
2023-09-06T19:50:54.782Z,7.00
2023-09-06T19:53:24.931Z,6.78
2023-09-06T19:55:53.425Z,7.15
2023-09-06T19:58:21.030Z,7.28
2023-09-06T20:00:48.716Z,6.10
2023-09-06T20:03:16.217Z,5.75
2023-09-06T20:05:43.972Z,9.52
2023-09-06T20:08:11.807Z,11.63
2023-09-06T20:13:13.070Z,8.55
2023-09-06T20:15:40.486Z,7.50
2023-09-06T20:18:08.387Z,7.72
2023-09-06T20:20:38.766Z,7.32
2023-09-06T20:23:06.368Z,6.82
2023-09-06T20:25:34.520Z,6.88
2023-09-06T20:28:04.250Z,6.35
2023-09-06T20:30:31.617Z,6.95
2023-09-06T20:32:59.489Z,7.13
2023-09-06T20:35:26.931Z,7.20
2023-09-06T20:37:54.333Z,9.40
2023-09-06T20:40:21.810Z,8.70
2023-09-06T20:42:50.787Z,10.45
2023-09-06T20:45:18.124Z,10.57
2023-09-06T20:47:45.426Z,11.32
2023-09-06T20:50:16.208Z,9.60
2023-09-06T20:52:43.607Z,9.65
2023-09-06T20:55:12.249Z,9.07
2023-09-06T20:57:39.568Z,10.45
2023-09-06T21:00:10.767Z,11.35
2023-09-06T21:02:38.577Z,12.07
2023-09-06T21:05:06.423Z,11.38
2023-09-06T21:07:33.889Z,11.27
2023-09-06T21:10:01.146Z,11.68
2023-09-06T21:12:28.734Z,10.68
2023-09-06T21:14:56.093Z,11.85
2023-09-06T21:17:23.486Z,12.05
2023-09-06T21:19:51.344Z,12.57
2023-09-06T21:22:18.560Z,16.17
2023-09-06T21:24:45.870Z,15.55
2023-09-06T21:27:13.431Z,16.65
2023-09-06T21:29:40.665Z,17.80
2023-09-06T21:32:08.170Z,17.88
2023-09-06T21:34:35.462Z,18.70
2023-09-06T21:37:02.915Z,18.40
2023-09-06T21:39:30.273Z,22.05
2023-09-06T21:42:04.906Z,19.10
2023-09-06T21:44:32.263Z,21.80
2023-09-06T21:46:59.632Z,22.67
2023-09-06T21:49:26.809Z,21.90
2023-09-06T21:51:58.278Z,24.42
2023-09-06T21:54:32.634Z,25.73
2023-09-06T21:57:00.373Z,25.25
2023-09-06T21:59:27.528Z,27.95
2023-09-06T22:01:57.174Z,27.90
2023-09-06T22:04:24.503Z,33.10
2023-09-06T22:06:51.842Z,37.97
2023-09-06T22:09:19.124Z,39.78
2023-09-06T22:11:48.766Z,40.97
2023-09-06T22:14:17.616Z,41.35
2023-09-06T22:16:45.837Z,42.63
2023-09-06T22:19:14.649Z,41.80
2023-09-06T22:21:43.019Z,41.75
2023-09-06T22:24:12.092Z,38.63
2023-09-06T22:26:39.309Z,39.60
2023-09-06T22:29:07.065Z,38.63
2023-09-06T22:31:36.227Z,38.25
2023-09-06T22:34:05.511Z,45.63
2023-09-06T22:36:32.689Z,47.50
2023-09-06T22:38:59.880Z,48.10
2023-09-06T22:41:27.170Z,48.75
2023-09-06T22:43:54.588Z,47.83
2023-09-06T22:46:22.067Z,50.45
2023-09-06T22:48:54.803Z,49.55
2023-09-06T22:51:22.764Z,47.80
2023-09-06T22:53:50.388Z,47.33
2023-09-06T22:56:20.504Z,48.83
2023-09-06T22:58:47.693Z,48.47
2023-09-06T23:01:14.945Z,48.85
2023-09-06T23:03:44.059Z,47.33
2023-09-06T23:06:12.328Z,48.00
2023-09-06T23:08:45.533Z,50.03
2023-09-06T23:11:13.789Z,44.80
2023-09-06T23:13:41.300Z,44.45
2023-09-06T23:16:10.404Z,46.05
2023-09-06T23:18:44.674Z,46.97
2023-09-06T23:21:14.294Z,46.22
2023-09-06T23:23:44.058Z,44.83
2023-09-06T23:26:13.503Z,44.35
2023-09-06T23:28:45.406Z,45.58
2023-09-06T23:31:15.399Z,46.45
2023-09-06T23:33:45.509Z,46.97
2023-09-06T23:36:17.120Z,47.35
2023-09-06T23:38:46.958Z,46.90
2023-09-06T23:41:17.871Z,45.55
2023-09-06T23:43:45.894Z,48.78
2023-09-06T23:46:13.756Z,46.17
2023-09-06T23:48:41.202Z,48.33
2023-09-06T23:51:08.317Z,45.70
2023-09-06T23:53:35.815Z,46.95
2023-09-06T23:56:05.209Z,46.58
2023-09-06T23:58:32.654Z,47.10
